Time;durP1;ratioP1;P1;durP2;ratioP2;P2;SDS_P1;SDS_P2;PMS_P1;PMS_P2;Temp;Humidity;BMP_temperature;BMP_pressure;BME280_temperature;BME280_humidity;BME280_pressure;Samples;Min_cycle;Max_cycle;Signal;HPM_P1;HPM_P2
2022/09/08 00:00:29;;;;;;;8.27;4.60;;;;;;;-145.50;100.00;65435.88;5059706;28;20049;-61
2022/09/08 00:03:00;;;;;;;7.35;4.70;;;;;;;-145.50;100.00;65435.88;5067539;28;20533;-61
2022/09/08 00:05:29;;;;;;;11.32;5.30;;;;;;;-145.50;100.00;65435.88;5064815;28;20055;-61
2022/09/08 00:07:58;;;;;;;8.20;5.50;;;;;;;-145.50;100.00;65435.88;5076584;28;20076;-61
2022/09/08 00:10:25;;;;;;;8.70;5.07;;;;;;;-145.50;100.00;65435.88;5066734;28;20063;-61
2022/09/08 00:12:51;;;;;;;7.25;4.72;;;;;;;-145.50;100.00;65435.88;5064724;28;20056;-61
2022/09/08 00:15:17;;;;;;;10.30;5.55;;;;;;;-145.50;100.00;65435.88;5072900;28;20051;-61
2022/09/08 00:17:44;;;;;;;9.18;4.57;;;;;;;-145.50;100.00;65435.88;5069273;28;20048;-61
2022/09/08 00:20:10;;;;;;;6.68;4.07;;;;;;;-145.50;100.00;65435.88;5080337;28;20051;-62
2022/09/08 00:22:36;;;;;;;9.80;3.92;;;;;;;-145.50;100.00;65435.88;5064553;28;20533;-61
2022/09/08 00:25:03;;;;;;;5.10;2.85;;;;;;;-145.50;100.00;65435.88;5069315;28;20090;-61
2022/09/08 00:27:29;;;;;;;6.43;2.70;;;;;;;-145.50;100.00;65435.88;5060614;28;20092;-61
2022/09/08 00:29:56;;;;;;;7.60;2.88;;;;;;;-145.50;100.00;65435.88;5060192;28;20070;-61
2022/09/08 00:32:23;;;;;;;7.80;2.50;;;;;;;-145.50;100.00;65435.88;5071035;28;20051;-61
2022/09/08 00:34:50;;;;;;;5.88;2.80;;;;;;;-145.50;100.00;65435.88;5063628;28;20114;-62
2022/09/08 00:37:18;;;;;;;8.50;3.30;;;;;;;-145.50;100.00;65435.88;5068844;28;20044;-61
2022/09/08 00:39:44;;;;;;;5.75;2.70;;;;;;;-145.50;100.00;65435.88;5062847;28;20053;-63
2022/09/08 00:42:11;;;;;;;6.57;2.50;;;;;;;-145.50;100.00;65435.88;5064896;28;20768;-61
2022/09/08 00:44:49;;;;;;;7.93;3.00;;;;;;;-145.50;100.00;65435.88;5064633;28;20049;-61
2022/09/08 00:47:26;;;;;;;;;;;;;;;-145.50;100.00;65435.88;5066470;28;20098;-61
2022/09/08 00:49:59;;;;;;;5.07;2.60;;;;;;;-145.50;100.00;65435.88;5068374;28;20277;-61
2022/09/08 00:52:30;;;;;;;7.35;2.50;;;;;;;-145.50;100.00;65435.88;5065908;28;20052;-61
2022/09/08 00:54:56;;;;;;;7.32;2.28;;;;;;;-145.50;100.00;65435.88;5070239;28;20075;-60
2022/09/08 00:57:23;;;;;;;5.65;1.90;;;;;;;-145.50;100.00;65435.88;5060481;28;20106;-62
2022/09/08 00:59:50;;;;;;;6.72;2.08;;;;;;;-145.50;100.00;65435.88;5069659;28;20871;-62
2022/09/08 01:02:25;;;;;;;6.18;2.13;;;;;;;-145.50;100.00;65435.88;5062027;28;20532;-59
2022/09/08 01:04:57;;;;;;;6.85;1.90;;;;;;;-145.50;100.00;65435.88;5067566;28;20048;-62
2022/09/08 01:13:20;;;;;;;7.10;2.35;;;;;;;-145.50;100.00;65435.88;5056222;28;20456;-62
2022/09/08 01:15:47;;;;;;;6.30;2.63;;;;;;;-145.50;100.00;65435.88;5067023;28;20532;-61
2022/09/08 01:18:14;;;;;;;10.93;2.42;;;;;;;-145.50;100.00;65435.88;5066887;28;20052;-61
2022/09/08 01:21:01;;;;;;;8.98;2.35;;;;;;;-145.50;100.00;65435.88;5060923;28;20067;-60
2022/09/08 01:23:47;;;;;;;5.57;1.77;;;;;;;-145.50;100.00;65435.88;5060952;28;20713;-60
2022/09/08 01:26:38;;;;;;;6.25;2.05;;;;;;;-145.50;100.00;65435.88;5053909;28;20044;-62
2022/09/08 01:29:07;;;;;;;5.82;2.33;;;;;;;-145.50;100.00;65435.88;5061197;28;20102;-62
2022/09/08 01:31:38;;;;;;;8.18;2.20;;;;;;;-145.50;100.00;65435.88;5061009;28;20048;-61
2022/09/08 01:34:05;;;;;;;4.68;1.92;;;;;;;-145.50;100.00;65435.88;5066984;28;20071;-61
2022/09/08 01:36:31;;;;;;;6.37;2.47;;;;;;;-145.50;100.00;65435.88;5054897;28;20044;-61
2022/09/08 01:38:58;;;;;;;6.13;2.20;;;;;;;-145.50;100.00;65435.88;5056455;28;20053;-61
2022/09/08 01:41:24;;;;;;;8.50;2.97;;;;;;;-145.50;100.00;65435.88;5066001;28;20056;-61
2022/09/08 01:43:51;;;;;;;6.60;2.70;;;;;;;-145.50;100.00;65435.88;5060943;28;20145;-61
2022/09/08 01:46:17;;;;;;;9.93;2.72;;;;;;;-145.50;100.00;65435.88;5065232;28;20619;-61
2022/09/08 01:48:44;;;;;;;10.23;2.75;;;;;;;-145.50;100.00;65435.88;5058262;28;20363;-61
2022/09/08 01:51:10;;;;;;;8.38;2.65;;;;;;;-145.50;100.00;65435.88;5061506;28;20049;-61
2022/09/08 01:53:37;;;;;;;10.48;2.90;;;;;;;-145.50;100.00;65435.88;5056041;28;20114;-61
2022/09/08 01:56:05;;;;;;;12.55;3.38;;;;;;;-145.50;100.00;65435.88;5064924;28;20052;-60
2022/09/08 01:58:32;;;;;;;;;;;;;;;-145.50;100.00;65435.88;5066740;28;20102;-60
2022/09/08 02:00:58;;;;;;;8.85;3.17;;;;;;;-145.50;100.00;65435.88;5060409;28;20297;-62
2022/09/08 02:03:25;;;;;;;19.27;5.93;;;;;;;-145.50;100.00;65435.88;5066687;28;20118;-61
2022/09/08 02:05:52;;;;;;;13.18;4.68;;;;;;;-145.50;100.00;65435.88;5054239;28;20057;-60
2022/09/08 02:08:18;;;;;;;11.70;4.20;;;;;;;-145.50;100.00;65435.88;5063318;28;20097;-60
2022/09/08 02:10:53;;;;;;;13.27;4.28;;;;;;;-145.50;100.00;65435.88;5059106;28;20075;-60
2022/09/08 02:13:20;;;;;;;9.00;3.60;;;;;;;-145.50;100.00;65435.88;5060963;28;20052;-62
2022/09/08 02:15:46;;;;;;;6.07;3.28;;;;;;;-145.50;100.00;65435.88;5066860;28;20186;-60
2022/09/08 02:18:13;;;;;;;10.65;3.83;;;;;;;-145.50;100.00;65435.88;5050956;28;20055;-60
2022/09/08 02:20:39;;;;;;;8.27;3.35;;;;;;;-145.50;100.00;65435.88;5062330;28;20145;-60
2022/09/08 02:23:05;;;;;;;6.50;2.97;;;;;;;-145.50;100.00;65435.88;5059805;28;20048;-60
2022/09/08 02:25:32;;;;;;;6.95;3.75;;;;;;;-145.50;100.00;65435.88;5066960;28;20052;-60
2022/09/08 02:27:58;;;;;;;10.70;3.58;;;;;;;-145.50;100.00;65435.88;5060478;28;20074;-60
2022/09/08 02:30:24;;;;;;;8.55;4.15;;;;;;;-145.50;100.00;65435.88;5066755;28;20539;-60
2022/09/08 02:32:51;;;;;;;7.32;3.63;;;;;;;-145.50;100.00;65435.88;5062158;28;20041;-60
2022/09/08 02:35:17;;;;;;;8.02;3.35;;;;;;;-145.50;100.00;65435.88;5052673;28;20044;-60
2022/09/08 02:37:44;;;;;;;10.73;3.40;;;;;;;-145.50;100.00;65435.88;5066433;28;20466;-61
2022/09/08 02:40:10;;;;;;;9.68;3.78;;;;;;;-145.50;100.00;65435.88;5058582;28;20044;-60
2022/09/08 02:42:37;;;;;;;7.82;3.70;;;;;;;-145.50;100.00;65435.88;5065989;28;20088;-60
2022/09/08 02:45:03;;;;;;;8.80;3.88;;;;;;;-145.50;100.00;65435.88;5058409;28;20066;-59
2022/09/08 02:47:34;;;;;;;7.60;3.75;;;;;;;-145.50;100.00;65435.88;5060923;28;20079;-61
2022/09/08 02:50:01;;;;;;;11.82;4.25;;;;;;;-145.50;100.00;65435.88;5059309;28;20063;-60
2022/09/08 02:52:30;;;;;;;7.35;3.70;;;;;;;-145.50;100.00;65435.88;5062287;28;20052;-60
2022/09/08 02:54:57;;;;;;;7.55;3.50;;;;;;;-145.50;100.00;65435.88;5066154;28;20078;-60
2022/09/08 02:57:24;;;;;;;9.20;4.00;;;;;;;-145.50;100.00;65435.88;5055408;28;20486;-61
2022/09/08 02:59:50;;;;;;;9.23;4.30;;;;;;;-145.50;100.00;65435.88;5063951;28;20060;-60
2022/09/08 03:02:17;;;;;;;7.38;3.72;;;;;;;-145.50;100.00;65435.88;5052436;28;20052;-60
2022/09/08 03:04:43;;;;;;;10.90;4.28;;;;;;;-145.50;100.00;65435.88;5058064;28;20044;-60
2022/09/08 03:07:10;;;;;;;6.70;3.90;;;;;;;-145.50;100.00;65435.88;5065471;28;20416;-60
2022/09/08 03:09:37;;;;;;;10.43;4.45;;;;;;;-145.50;100.00;65435.88;5058296;28;20078;-60
2022/09/08 03:12:03;;;;;;;11.82;4.85;;;;;;;-145.50;100.00;65435.88;5065928;28;20048;-60
2022/09/08 03:14:29;;;;;;;10.38;4.80;;;;;;;-145.50;100.00;65435.88;5052181;28;20063;-60
2022/09/08 03:16:56;;;;;;;9.52;4.80;;;;;;;-145.50;100.00;65435.88;5061394;28;20045;-60
2022/09/08 03:19:22;;;;;;;8.63;4.30;;;;;;;-145.50;100.00;65435.88;5059394;28;20070;-60
2022/09/08 03:21:49;;;;;;;9.50;4.45;;;;;;;-145.50;100.00;65435.88;5066230;28;20106;-59
2022/09/08 03:24:15;;;;;;;8.88;4.80;;;;;;;-145.50;100.00;65435.88;5065494;28;20378;-60
2022/09/08 03:26:42;;;;;;;9.40;4.45;;;;;;;-145.50;100.00;65435.88;5060258;28;20060;-60
2022/09/08 03:29:08;;;;;;;9.25;4.68;;;;;;;-145.50;100.00;65435.88;5061070;28;20048;-60
2022/09/08 03:31:35;;;;;;;12.30;5.10;;;;;;;-145.50;100.00;65435.88;5053006;28;20049;-60
2022/09/08 03:34:02;;;;;;;10.25;5.13;;;;;;;-145.50;100.00;65435.88;5064968;28;20040;-60
2022/09/08 03:36:28;;;;;;;8.32;4.13;;;;;;;-145.50;100.00;65435.88;5059074;28;20060;-60
2022/09/08 03:38:54;;;;;;;13.98;4.43;;;;;;;-145.50;100.00;65435.88;5063755;28;20048;-60
2022/09/08 03:41:21;;;;;;;9.00;4.65;;;;;;;-145.50;100.00;65435.88;5065055;28;20473;-60
2022/09/08 03:43:49;;;;;;;9.00;4.85;;;;;;;-145.50;100.00;65435.88;5053604;28;20079;-61
2022/09/08 03:46:16;;;;;;;8.50;4.07;;;;;;;-145.50;100.00;65435.88;5061932;28;20037;-59
2022/09/08 03:48:43;;;;;;;12.73;4.82;;;;;;;-145.50;100.00;65435.88;5058587;28;20557;-61
2022/09/08 03:51:22;;;;;;;11.38;4.85;;;;;;;-145.50;100.00;65435.88;5065388;28;20479;-60
2022/09/08 03:53:50;;;;;;;9.60;4.88;;;;;;;-145.50;100.00;65435.88;5059598;28;20048;-60
2022/09/08 03:56:17;;;;;;;7.72;4.63;;;;;;;-145.50;100.00;65435.88;5054565;28;20049;-61
2022/09/08 03:58:43;;;;;;;10.05;4.72;;;;;;;-145.50;100.00;65435.88;5057265;28;20045;-62
2022/09/08 04:01:13;;;;;;;9.20;3.90;;;;;;;-145.50;100.00;65435.88;5065190;28;20070;-60
2022/09/08 04:03:40;;;;;;;9.55;4.15;;;;;;;-145.50;100.00;65435.88;5058904;28;20388;-60
2022/09/08 04:06:11;;;;;;;6.47;3.95;;;;;;;-145.50;100.00;65435.88;5060074;28;20135;-61
2022/09/08 04:08:38;;;;;;;30.10;6.97;;;;;;;-145.50;100.00;65435.88;5063233;28;20441;-61
2022/09/08 04:11:06;;;;;;;13.73;5.00;;;;;;;-145.50;100.00;65435.88;5052624;28;20044;-60
2022/09/08 04:13:32;;;;;;;9.68;3.95;;;;;;;-145.50;100.00;65435.88;5062077;28;20451;-59
2022/09/08 04:16:00;;;;;;;8.77;3.78;;;;;;;-145.50;100.00;65435.88;5059883;28;20583;-60
2022/09/08 04:18:26;;;;;;;9.18;4.00;;;;;;;-145.50;100.00;65435.88;5064828;28;20416;-60
2022/09/08 04:21:00;;;;;;;10.23;3.97;;;;;;;-145.50;100.00;65435.88;5068183;28;20129;-61
2022/09/08 04:23:27;;;;;;;9.98;4.28;;;;;;;-145.50;100.00;65435.88;5056457;28;20109;-60
2022/09/08 04:25:58;;;;;;;8.65;4.40;;;;;;;-145.50;100.00;65435.88;5063868;28;20094;-58
2022/09/08 04:28:25;;;;;;;9.23;4.80;;;;;;;-145.50;100.00;65435.88;5061295;28;20114;-59
2022/09/08 04:30:51;;;;;;;10.25;5.28;;;;;;;-145.50;100.00;65435.88;5068218;28;20114;-60
2022/09/08 04:33:18;;;;;;;12.80;5.25;;;;;;;-145.50;100.00;65435.88;5062260;28;20056;-60
2022/09/08 04:35:44;;;;;;;8.57;4.93;;;;;;;-145.50;100.00;65435.88;5068217;28;20056;-60
2022/09/08 04:38:11;;;;;;;9.25;4.85;;;;;;;-145.50;100.00;65435.88;5060141;28;20055;-62
2022/09/08 04:40:37;;;;;;;8.88;5.13;;;;;;;-145.50;100.00;65435.88;5060650;28;20493;-61
2022/09/08 04:43:03;;;;;;;6.72;4.50;;;;;;;-145.50;100.00;65435.88;5067731;28;20056;-60
2022/09/08 04:45:30;;;;;;;9.88;4.38;;;;;;;-145.50;100.00;65435.88;5061916;28;20041;-60
2022/09/08 04:47:56;;;;;;;6.28;3.03;;;;;;;-145.50;100.00;65435.88;5067565;28;20041;-60
2022/09/08 04:50:23;;;;;;;6.57;3.60;;;;;;;-145.50;100.00;65435.88;5061208;28;20056;-60
2022/09/08 04:52:49;;;;;;;8.07;3.30;;;;;;;-145.50;100.00;65435.88;5059950;28;20547;-60
2022/09/08 04:55:16;;;;;;;6.47;3.00;;;;;;;-145.50;100.00;65435.88;5063470;28;20345;-60
2022/09/08 04:57:42;;;;;;;8.15;3.10;;;;;;;-145.50;100.00;65435.88;5055938;28;20130;-60
2022/09/08 05:00:10;;;;;;;7.45;3.35;;;;;;;-145.50;100.00;65435.88;5067115;28;20049;-60
2022/09/08 05:02:36;;;;;;;6.63;3.13;;;;;;;-145.50;100.00;65435.88;5055463;28;20044;-60
2022/09/08 05:05:03;;;;;;;7.90;3.38;;;;;;;-145.50;100.00;65435.88;5063030;28;20080;-60
2022/09/08 05:07:29;;;;;;;8.13;3.90;;;;;;;-145.50;100.00;65435.88;5055646;28;20082;-60
2022/09/08 05:09:56;;;;;;;9.88;3.90;;;;;;;-145.50;100.00;65435.88;5066401;28;20051;-62
2022/09/08 05:12:22;;;;;;;8.32;3.20;;;;;;;-145.50;100.00;65435.88;5060534;28;20052;-60
2022/09/08 05:14:49;;;;;;;12.98;4.05;;;;;;;-145.50;100.00;65435.88;5061439;28;20041;-61
2022/09/08 05:17:15;;;;;;;9.68;4.07;;;;;;;-145.50;100.00;65435.88;5066700;28;20519;-60
2022/09/08 05:19:49;;;;;;;16.98;5.75;;;;;;;-145.50;100.00;65435.88;5054988;28;20086;-61
2022/09/08 05:22:16;;;;;;;17.67;4.70;;;;;;;-145.50;100.00;65435.88;5059542;28;20040;-61
2022/09/08 05:24:42;;;;;;;11.80;4.10;;;;;;;-145.50;100.00;65435.88;5058938;28;20049;-61
2022/09/08 05:27:08;;;;;;;10.82;4.55;;;;;;;-145.50;100.00;65435.88;5067671;28;20059;-61
2022/09/08 05:29:35;;;;;;;14.85;5.38;;;;;;;-145.50;100.00;65435.88;5063202;28;20055;-62
2022/09/08 05:32:01;;;;;;;11.15;4.72;;;;;;;-145.50;100.00;65435.88;5060231;28;20482;-61
2022/09/08 05:34:27;;;;;;;10.15;4.57;;;;;;;-145.50;100.00;65435.88;5058329;28;20052;-61
2022/09/08 05:36:54;;;;;;;10.63;4.50;;;;;;;-145.50;100.00;65435.88;5054824;28;20524;-61
2022/09/08 05:39:20;;;;;;;11.02;4.43;;;;;;;-145.50;100.00;65435.88;5064363;28;20677;-61
2022/09/08 05:41:47;;;;;;;14.10;4.78;;;;;;;-145.50;100.00;65435.88;5061592;28;20055;-61
2022/09/08 05:44:14;;;;;;;13.52;4.47;;;;;;;-145.50;100.00;65435.88;5066873;28;20052;-61
2022/09/08 05:46:40;;;;;;;8.48;4.80;;;;;;;-145.50;100.00;65435.88;5063405;28;20381;-61
2022/09/08 05:49:07;;;;;;;9.85;4.25;;;;;;;-145.50;100.00;65435.88;5053347;28;20044;-62
2022/09/08 05:51:33;;;;;;;11.85;4.22;;;;;;;-145.50;100.00;65435.88;5066331;28;20052;-61
2022/09/08 05:54:01;;;;;;;10.50;4.72;;;;;;;-145.50;100.00;65435.88;5060560;28;20075;-61
2022/09/08 05:56:27;;;;;;;12.07;4.37;;;;;;;-145.50;100.00;65435.88;5065729;28;20067;-62
2022/09/08 05:58:57;;;;;;;11.10;5.00;;;;;;;-145.50;100.00;65435.88;5059995;28;20281;-61
2022/09/08 06:01:30;;;;;;;8.70;4.30;;;;;;;-145.50;100.00;65435.88;5059850;28;20071;-63
2022/09/08 06:03:59;;;;;;;11.05;4.68;;;;;;;-145.50;100.00;65435.88;5058020;28;20068;-62
2022/09/08 06:06:27;;;;;;;;;;;;;;;-145.50;100.00;65435.88;5064995;28;20416;-61
2022/09/08 06:08:59;;;;;;;;;;;;;;;-145.50;100.00;65435.88;5067177;28;19924;-61
2022/09/08 06:11:28;;;;;;;12.23;5.75;;;;;;;-145.50;100.00;65435.88;5060001;28;20003;-61
2022/09/08 06:13:55;;;;;;;15.68;5.47;;;;;;;-145.50;100.00;65435.88;5066588;28;20501;-62
2022/09/08 06:16:22;;;;;;;10.77;5.68;;;;;;;-145.50;100.00;65435.88;5051700;28;20053;-60
2022/09/08 06:18:48;;;;;;;10.82;5.55;;;;;;;-145.50;100.00;65435.88;5060582;28;20091;-61
2022/09/08 06:21:20;;;;;;;10.85;5.63;;;;;;;-145.50;100.00;65435.88;5058219;28;20048;-62
2022/09/08 06:23:49;;;;;;;9.68;5.60;;;;;;;-145.50;100.00;65435.88;5065850;28;20102;-61
2022/09/08 06:26:15;;;;;;;;;;;;;;;-145.50;100.00;65435.88;5066394;28;20101;-61
2022/09/08 06:28:49;;;;;;;10.45;5.22;;;;;;;-145.50;100.00;65435.88;5055306;28;19984;-61
2022/09/08 06:31:21;;;;;;;8.90;5.32;;;;;;;-145.50;100.00;65435.88;5057409;28;20048;-62
2022/09/08 06:33:49;;;;;;;10.73;5.20;;;;;;;-145.50;100.00;65435.88;5059372;28;20036;-61
2022/09/08 06:36:21;;;;;;;8.30;5.50;;;;;;;-145.50;100.00;65435.88;5065834;28;20052;-61
2022/09/08 06:38:55;;;;;;;10.77;5.05;;;;;;;-145.50;100.00;65435.88;5059481;28;20106;-61
2022/09/08 06:41:29;;;;;;;9.10;5.20;;;;;;;-145.50;100.00;65435.88;5066006;28;20106;-63
2022/09/08 06:44:09;;;;;;;12.00;5.40;;;;;;;-145.50;100.00;65435.88;5057274;28;20044;-61
2022/09/08 06:46:39;;;;;;;16.27;6.07;;;;;;;-145.50;100.00;65435.88;5062702;28;20048;-61
2022/09/08 06:49:09;;;;;;;19.13;6.80;;;;;;;-145.50;100.00;65435.88;5065044;28;20044;-61
2022/09/08 06:51:42;;;;;;;13.05;6.65;;;;;;;-145.50;100.00;65435.88;5059000;28;20052;-61
2022/09/08 06:54:09;;;;;;;13.18;6.72;;;;;;;-145.50;100.00;65435.88;5065512;28;20060;-61
2022/09/08 06:57:01;;;;;;;11.75;6.30;;;;;;;-145.50;100.00;65435.88;5047013;28;20099;-61
2022/09/08 07:00:18;;;;;;;13.88;6.75;;;;;;;-145.50;100.00;65435.88;5047053;28;20497;-61
2022/09/08 07:03:15;;;;;;;11.88;6.78;;;;;;;-145.50;100.00;65435.88;5054394;28;20070;-61
2022/09/08 07:06:02;;;;;;;16.03;6.67;;;;;;;-145.50;100.00;65435.88;5059273;28;20071;-61
2022/09/08 07:08:38;;;;;;;16.23;6.68;;;;;;;-145.50;100.00;65435.88;5058687;28;20934;-61
2022/09/08 07:11:14;;;;;;;11.93;6.20;;;;;;;-145.50;100.00;65435.88;5053557;28;20535;-61
2022/09/08 07:14:13;;;;;;;9.45;5.65;;;;;;;-145.50;100.00;65435.88;5052497;28;20064;-61
2022/09/08 07:16:46;;;;;;;11.98;6.00;;;;;;;-145.50;100.00;65435.88;5062917;28;20052;-63
2022/09/08 07:19:28;;;;;;;9.10;5.70;;;;;;;-145.50;100.00;65435.88;5058185;28;20083;-62
2022/09/08 07:22:15;;;;;;;9.38;5.50;;;;;;;-145.50;100.00;65435.88;5064622;28;20481;-62
2022/09/08 07:24:43;;;;;;;10.98;6.05;;;;;;;-145.50;100.00;65435.88;5048587;28;20052;-62
2022/09/08 07:27:13;;;;;;;11.93;6.28;;;;;;;-145.50;100.00;65435.88;5054472;28;20045;-61
2022/09/08 07:29:47;;;;;;;9.75;5.88;;;;;;;-145.50;100.00;65435.88;5064070;28;20044;-61
2022/09/08 07:32:19;;;;;;;10.25;5.85;;;;;;;-145.50;100.00;65435.88;5065229;28;20071;-61
2022/09/08 07:34:52;;;;;;;10.23;6.25;;;;;;;-145.50;100.00;65435.88;5062965;28;20036;-62
2022/09/08 07:37:27;;;;;;;10.43;6.80;;;;;;;-145.50;100.00;65435.88;5059099;28;20093;-61
2022/09/08 07:40:25;;;;;;;12.07;7.60;;;;;;;-145.50;100.00;65435.88;5059086;28;20053;-61
2022/09/08 07:42:56;;;;;;;9.48;5.93;;;;;;;-145.50;100.00;65435.88;5054892;28;20076;-61
2022/09/08 07:45:39;;;;;;;12.77;7.63;;;;;;;-145.50;100.00;65435.88;5064987;28;20450;-61
2022/09/08 07:48:31;;;;;;;10.70;7.70;;;;;;;-145.50;100.00;65435.88;5057478;28;20051;-63
2022/09/08 07:51:12;;;;;;;9.68;7.28;;;;;;;-145.50;100.00;65435.88;5065372;28;20121;-62
2022/09/08 07:54:03;;;;;;;10.38;7.40;;;;;;;-145.50;100.00;65435.88;5052371;28;20053;-61
2022/09/08 07:56:50;;;;;;;9.68;7.22;;;;;;;-145.50;100.00;65435.88;5062427;28;20398;-61
2022/09/08 07:59:52;;;;;;;11.77;7.78;;;;;;;-145.50;100.00;65435.88;5062400;28;20668;-61
2022/09/08 08:03:09;;;;;;;10.73;7.60;;;;;;;-145.50;100.00;65435.88;5068628;28;20076;-60
2022/09/08 08:05:47;;;;;;;9.70;6.72;;;;;;;-145.50;100.00;65435.88;5009525;28;20083;-61
2022/09/08 08:08:39;;;;;;;9.90;5.70;;;;;;;-145.50;100.00;65435.88;5018031;28;20581;-61
2022/09/08 08:11:20;;;;;;;8.50;6.53;;;;;;;-145.50;100.00;65435.88;5004967;28;20049;-63
2022/09/08 08:14:08;;;;;;;10.35;6.63;;;;;;;-145.50;100.00;65435.88;5021122;28;20049;-62
2022/09/08 08:16:53;;;;;;;;;;;;;;;-145.50;100.00;65435.88;5018263;28;20069;-61
2022/09/08 08:19:56;;;;;;;11.10;7.40;;;;;;;-145.50;100.00;65435.88;5024210;28;19925;-60
2022/09/08 08:22:59;;;;;;;9.13;6.90;;;;;;;-145.50;100.00;65435.88;5014386;28;20049;-61
2022/09/08 08:25:44;;;;;;;11.60;6.88;;;;;;;-145.50;100.00;65435.88;5025623;28;20042;-61
2022/09/08 08:28:18;;;;;;;12.60;6.55;;;;;;;-145.50;100.00;65435.88;5016524;28;20045;-62
2022/09/08 08:31:01;;;;;;;10.10;6.45;;;;;;;-145.50;100.00;65435.88;5025236;28;20049;-61
2022/09/08 08:33:32;;;;;;;10.75;5.80;;;;;;;-145.50;100.00;65435.88;5016589;28;20050;-61
2022/09/08 08:36:05;;;;;;;10.63;7.40;;;;;;;-145.50;100.00;65435.88;5010748;28;20108;-61
2022/09/08 08:38:41;;;;;;;10.80;7.30;;;;;;;-145.50;100.00;65435.88;5022667;28;20041;-61
2022/09/08 08:41:17;;;;;;;12.52;7.45;;;;;;;-145.50;100.00;65435.88;5067129;28;20048;-61
2022/09/08 08:44:05;;;;;;;9.52;7.43;;;;;;;-145.50;100.00;65435.88;5062216;28;20048;-61
2022/09/08 08:46:43;;;;;;;12.15;8.63;;;;;;;-145.50;100.00;65435.88;5067671;28;20052;-61
2022/09/08 08:49:32;;;;;;;8.95;7.00;;;;;;;-145.50;100.00;65435.88;5059093;28;20115;-61
2022/09/08 08:52:17;;;;;;;10.48;7.45;;;;;;;-145.50;100.00;65435.88;5062198;28;20452;-61
2022/09/08 08:55:22;;;;;;;11.10;7.40;;;;;;;-145.50;100.00;65435.88;5057951;28;20098;-61
2022/09/08 08:57:56;;;;;;;10.25;6.35;;;;;;;-145.50;100.00;65435.88;5065233;28;20072;-61
2022/09/08 09:00:34;;;;;;;11.70;6.20;;;;;;;-145.50;100.00;65435.88;5067506;28;20098;-61
2022/09/08 09:03:09;;;;;;;7.65;5.50;;;;;;;-145.50;100.00;65435.88;5060983;28;20048;-61
2022/09/08 09:06:08;;;;;;;9.15;5.40;;;;;;;-145.50;100.00;65435.88;5063786;28;20044;-61
2022/09/08 09:08:51;;;;;;;7.80;4.82;;;;;;;-145.50;100.00;65435.88;5059179;28;20075;-63
2022/09/08 09:11:30;;;;;;;8.70;5.25;;;;;;;-145.50;100.00;65435.88;5067658;28;20130;-61
2022/09/08 09:14:34;;;;;;;7.78;5.20;;;;;;;-145.50;100.00;65435.88;5058254;28;20064;-61
2022/09/08 09:17:29;;;;;;;7.82;5.32;;;;;;;-145.50;100.00;65435.88;5053689;28;20067;-61
2022/09/08 09:20:39;;;;;;;8.73;5.25;;;;;;;-145.50;100.00;65435.88;5062729;28;20044;-62
2022/09/08 09:23:34;;;;;;;6.97;4.85;;;;;;;-145.50;100.00;65435.88;5057067;28;20052;-62
2022/09/08 09:26:13;;;;;;;9.45;5.15;;;;;;;-145.50;100.00;65435.88;5064999;28;20076;-63
2022/09/08 09:28:54;;;;;;;10.68;5.63;;;;;;;-145.50;100.00;65435.88;5066965;28;20545;-62
2022/09/08 09:32:01;;;;;;;15.43;5.80;;;;;;;-145.50;100.00;65435.88;5058484;28;20052;-62
2022/09/08 09:34:36;;;;;;;12.18;6.50;;;;;;;-145.50;100.00;65435.88;5064951;28;20052;-62
2022/09/08 09:37:35;;;;;;;8.77;5.15;;;;;;;-145.50;100.00;65435.88;5065484;28;20045;-62
2022/09/08 09:40:05;;;;;;;9.85;5.25;;;;;;;-145.50;100.00;65435.88;5065332;28;20044;-62
2022/09/08 09:42:40;;;;;;;8.40;4.20;;;;;;;-145.50;100.00;65435.88;5059839;28;20098;-62
2022/09/08 09:45:53;;;;;;;8.45;4.07;;;;;;;-145.50;100.00;65435.88;5060905;28;20501;-62
2022/09/08 09:48:37;;;;;;;7.93;3.97;;;;;;;-145.50;100.00;65435.88;5053662;28;20048;-62
2022/09/08 09:51:24;;;;;;;7.18;4.03;;;;;;;-145.50;100.00;65435.88;5065689;28;20560;-62
2022/09/08 09:54:13;;;;;;;8.23;3.80;;;;;;;-145.50;100.00;65435.88;5054599;28;20048;-62
2022/09/08 09:57:01;;;;;;;8.15;3.70;;;;;;;-145.50;100.00;65435.88;5066076;28;20044;-61
2022/09/08 10:00:00;;;;;;;8.73;4.35;;;;;;;-145.50;100.00;65435.88;5048405;28;20051;-62
2022/09/08 10:02:48;;;;;;;9.77;4.10;;;;;;;-145.50;100.00;65435.88;5064666;28;20048;-62
2022/09/08 10:05:45;;;;;;;7.30;3.75;;;;;;;-145.50;100.00;65435.88;5056156;28;20098;-63
2022/09/08 10:08:49;;;;;;;5.53;3.00;;;;;;;-145.50;100.00;65435.88;5065648;28;20055;-62
2022/09/08 10:11:58;;;;;;;7.68;3.15;;;;;;;-145.50;100.00;65435.88;5060041;28;20045;-61
2022/09/08 10:14:52;;;;;;;7.25;3.08;;;;;;;-145.50;100.00;65435.88;5052867;28;20051;-62
2022/09/08 10:17:25;;;;;;;7.18;3.38;;;;;;;-145.50;100.00;65435.88;5062412;28;20040;-62
2022/09/08 10:20:11;;;;;;;8.57;2.92;;;;;;;-145.50;100.00;65435.88;5066915;28;20059;-62
2022/09/08 10:22:56;;;;;;;5.85;3.33;;;;;;;-145.50;100.00;65435.88;5059904;28;20056;-62
2022/09/08 10:25:25;;;;;;;6.03;3.17;;;;;;;-145.50;100.00;65435.88;5059018;28;20166;-62
2022/09/08 10:28:11;;;;;;;5.80;2.55;;;;;;;-145.50;100.00;65435.88;5054505;28;20574;-62
2022/09/08 10:31:32;;;;;;;6.22;3.00;;;;;;;-145.50;100.00;65435.88;5066214;28;20052;-62
2022/09/08 10:34:23;;;;;;;6.60;2.85;;;;;;;-145.50;100.00;65435.88;5001331;28;20084;-62
2022/09/08 10:37:03;;;;;;;5.70;3.50;;;;;;;-145.50;100.00;65435.88;5061449;28;20049;-62
2022/09/08 10:39:45;;;;;;;7.18;4.55;;;;;;;-145.50;100.00;65435.88;5052374;28;20047;-62
2022/09/08 10:42:34;;;;;;;7.25;3.80;;;;;;;-145.50;100.00;65435.88;5061518;28;20048;-62
2022/09/08 10:45:32;;;;;;;5.47;2.80;;;;;;;-145.50;100.00;65435.88;5059590;28;20044;-62
2022/09/08 10:47:59;;;;;;;4.95;2.10;;;;;;;-145.50;100.00;65435.88;5060607;28;20086;-62
2022/09/08 10:50:29;;;;;;;5.10;2.30;;;;;;;-145.50;100.00;65435.88;5060809;28;20045;-61
2022/09/08 10:53:14;;;;;;;;;;;;;;;-145.50;100.00;65435.88;5063099;28;20487;-61
2022/09/08 10:56:08;;;;;;;5.50;2.92;;;;;;;-145.50;100.00;65435.88;5055543;28;20380;-62
2022/09/08 10:59:17;;;;;;;4.30;2.50;;;;;;;-145.50;100.00;65435.88;5058715;28;20102;-62
2022/09/08 11:02:20;;;;;;;6.93;2.80;;;;;;;-145.50;100.00;65435.88;5052880;28;20135;-63
2022/09/08 11:05:20;;;;;;;6.53;2.42;;;;;;;-145.50;100.00;65435.88;5066843;28;20123;-61
2022/09/08 11:07:58;;;;;;;6.57;2.55;;;;;;;-145.50;100.00;65435.88;5053000;28;20673;-61
2022/09/08 11:10:54;;;;;;;11.02;2.67;;;;;;;-145.50;100.00;65435.88;5065282;28;20056;-61
2022/09/08 11:13:29;;;;;;;4.97;2.33;;;;;;;-145.50;100.00;65435.88;5052947;28;20129;-61
2022/09/08 11:16:27;;;;;;;9.43;2.67;;;;;;;-145.50;100.00;65435.88;5066844;28;20110;-62
2022/09/08 11:19:22;;;;;;;4.70;2.50;;;;;;;-145.50;100.00;65435.88;5049453;28;20051;-61
2022/09/08 11:22:27;;;;;;;6.45;2.92;;;;;;;-145.50;100.00;65435.88;5053778;28;20817;-61
2022/09/08 11:25:15;;;;;;;5.65;2.83;;;;;;;-145.50;100.00;65435.88;5058723;28;20393;-61
2022/09/08 11:28:18;;;;;;;7.28;2.80;;;;;;;-145.50;100.00;65435.88;5064657;28;20052;-61
2022/09/08 11:31:16;;;;;;;5.50;2.30;;;;;;;-145.50;100.00;65435.88;5061867;28;20048;-61
2022/09/08 11:34:12;;;;;;;5.07;2.20;;;;;;;-145.50;100.00;65435.88;5064007;28;20052;-61
2022/09/08 11:36:51;;;;;;;5.15;1.73;;;;;;;-145.50;100.00;65435.88;5054249;28;20048;-61
2022/09/08 11:39:38;;;;;;;7.28;1.60;;;;;;;-145.50;100.00;65435.88;5067021;28;20110;-61
2022/09/08 11:42:20;;;;;;;3.78;1.35;;;;;;;-145.50;100.00;65435.88;5058545;28;20618;-61
2022/09/08 11:44:50;;;;;;;4.43;1.52;;;;;;;-145.50;100.00;65435.88;5068710;28;20052;-61
2022/09/08 11:47:38;;;;;;;4.38;1.38;;;;;;;-145.50;100.00;65435.88;5059268;28;20044;-60
2022/09/08 11:50:20;;;;;;;4.78;1.60;;;;;;;-145.50;100.00;65435.88;5064284;28;20087;-61
2022/09/08 11:53:43;;;;;;;5.25;1.60;;;;;;;-145.50;100.00;65435.88;5056402;28;20060;-60